Time;durP1;ratioP1;P1;durP2;ratioP2;P2;SDS_P1;SDS_P2;PMS_P1;PMS_P2;Temp;Humidity;BMP_temperature;BMP_pressure;BME280_temperature;BME280_humidity;BME280_pressure;Samples;Min_cycle;Max_cycle;Signal;HPM_P1;HPM_P2
2021/05/01 00:02:07;;;;;;;45.30;29.30;;;;;;;;;;4989336;28;20225;-68
2021/05/01 00:04:32;;;;;;;47.83;31.90;;;;;;;;;;4990676;28;20251;-68
2021/05/01 00:06:58;;;;;;;56.00;34.77;;;;;;;;;;4985904;28;20222;-68
2021/05/01 00:09:23;;;;;;;56.77;35.20;;;;;;;;;;4990429;28;20662;-68
2021/05/01 00:11:49;;;;;;;52.80;34.67;;;;;;;;;;4987640;28;20199;-68
2021/05/01 00:14:14;;;;;;;50.50;34.63;;;;;;;;;;4987386;28;20245;-68
2021/05/01 00:16:39;;;;;;;54.90;35.90;;;;;;;;;;5001982;28;20744;-67
2021/05/01 00:19:06;;;;;;;48.23;32.40;;;;;;;;;;4995604;28;20199;-68
2021/05/01 00:21:32;;;;;;;49.45;32.72;;;;;;;;;;4988176;28;20206;-68
2021/05/01 00:23:57;;;;;;;53.50;33.30;;;;;;;;;;4991758;28;20207;-67
2021/05/01 00:26:22;;;;;;;44.93;31.20;;;;;;;;;;4987626;28;20186;-68
2021/05/01 00:28:48;;;;;;;44.30;31.70;;;;;;;;;;4988800;28;20195;-68
2021/05/01 00:31:14;;;;;;;48.10;33.17;;;;;;;;;;4996457;28;20444;-68
2021/05/01 00:33:40;;;;;;;51.80;33.63;;;;;;;;;;4981802;28;20198;-68
2021/05/01 00:36:06;;;;;;;49.27;32.97;;;;;;;;;;4996082;28;20187;-68
2021/05/01 00:38:31;;;;;;;45.40;32.53;;;;;;;;;;4981344;28;20246;-68
2021/05/01 00:40:59;;;;;;;49.30;32.35;;;;;;;;;;4988884;28;20270;-68
2021/05/01 00:43:24;;;;;;;43.42;30.50;;;;;;;;;;4982717;28;20600;-68
2021/05/01 00:45:50;;;;;;;43.13;30.08;;;;;;;;;;4994497;28;20179;-68
2021/05/01 00:48:15;;;;;;;38.27;27.90;;;;;;;;;;4984644;28;20266;-68
2021/05/01 00:50:40;;;;;;;41.07;28.50;;;;;;;;;;4994969;28;20270;-68
2021/05/01 00:53:06;;;;;;;44.40;29.30;;;;;;;;;;4979805;28;20200;-68
2021/05/01 00:55:31;;;;;;;42.63;29.63;;;;;;;;;;4993199;28;20186;-67
2021/05/01 00:57:58;;;;;;;38.30;28.07;;;;;;;;;;4989283;28;20195;-67
2021/05/01 01:03:08;;;;;;;37.70;26.80;;;;;;;;;;4990944;28;20289;-68
2021/05/01 01:05:34;;;;;;;43.90;28.88;;;;;;;;;;4989769;28;20207;-68
2021/05/01 01:07:59;;;;;;;41.60;29.20;;;;;;;;;;4989976;28;20205;-68
2021/05/01 01:10:25;;;;;;;42.47;29.13;;;;;;;;;;4989963;28;20190;-68
2021/05/01 01:12:50;;;;;;;44.57;29.73;;;;;;;;;;4992692;28;20570;-68
2021/05/01 01:15:26;;;;;;;39.45;27.85;;;;;;;;;;4981047;28;20213;-68
2021/05/01 01:17:52;;;;;;;41.13;28.80;;;;;;;;;;4991339;28;20593;-68
2021/05/01 01:20:18;;;;;;;39.30;27.85;;;;;;;;;;4986368;28;20249;-68
2021/05/01 01:22:43;;;;;;;42.93;29.27;;;;;;;;;;4991096;28;20274;-68
2021/05/01 01:25:09;;;;;;;40.77;28.00;;;;;;;;;;4982529;28;20337;-68
2021/05/01 01:27:35;;;;;;;37.97;27.20;;;;;;;;;;4989696;28;20303;-68
2021/05/01 01:30:03;;;;;;;41.00;26.98;;;;;;;;;;4984726;28;20187;-68
2021/05/01 01:32:28;;;;;;;38.28;26.95;;;;;;;;;;4995552;28;20202;-68
2021/05/01 01:34:54;;;;;;;38.70;27.13;;;;;;;;;;4985299;28;20172;-68
2021/05/01 01:37:19;;;;;;;37.80;26.67;;;;;;;;;;4997173;28;20190;-68
2021/05/01 01:39:44;;;;;;;39.67;26.88;;;;;;;;;;4998538;28;20184;-68
2021/05/01 01:42:10;;;;;;;38.25;26.73;;;;;;;;;;4989982;28;20199;-68
2021/05/01 01:44:35;;;;;;;38.87;27.60;;;;;;;;;;4992062;28;20207;-68
2021/05/01 01:47:00;;;;;;;39.25;27.88;;;;;;;;;;4986293;28;20190;-68
2021/05/01 01:49:26;;;;;;;37.63;27.95;;;;;;;;;;4993617;28;20195;-68
2021/05/01 01:51:51;;;;;;;39.60;27.23;;;;;;;;;;4986603;28;20570;-68
2021/05/01 01:54:16;;;;;;;40.22;27.58;;;;;;;;;;4991553;28;20175;-68
2021/05/01 01:56:42;;;;;;;41.03;27.88;;;;;;;;;;4985273;28;20658;-68
2021/05/01 01:59:07;;;;;;;43.22;27.08;;;;;;;;;;4994626;28;20188;-67
2021/05/01 02:01:34;;;;;;;36.92;27.75;;;;;;;;;;4987908;28;20191;-67
2021/05/01 02:03:59;;;;;;;42.97;28.55;;;;;;;;;;4995104;28;20219;-67
2021/05/01 02:06:25;;;;;;;43.22;27.08;;;;;;;;;;4993706;28;20191;-67
2021/05/01 02:08:50;;;;;;;44.65;26.60;;;;;;;;;;4995484;28;20203;-67
2021/05/01 02:11:16;;;;;;;48.58;27.33;;;;;;;;;;5004709;28;21270;-67
2021/05/01 02:13:41;;;;;;;43.60;26.83;;;;;;;;;;4986152;28;20516;-67
2021/05/01 02:16:07;;;;;;;44.30;26.17;;;;;;;;;;4989624;28;20187;-67
2021/05/01 02:18:32;;;;;;;47.77;26.90;;;;;;;;;;4983706;28;20199;-67
2021/05/01 02:20:58;;;;;;;42.53;26.20;;;;;;;;;;5000557;28;20664;-68
2021/05/01 02:23:23;;;;;;;43.23;25.83;;;;;;;;;;4986503;28;20703;-68
2021/05/01 02:25:49;;;;;;;42.90;26.73;;;;;;;;;;4994718;28;20211;-67
2021/05/01 02:28:16;;;;;;;44.97;26.47;;;;;;;;;;4982959;28;20184;-67
2021/05/01 02:30:41;;;;;;;42.70;26.57;;;;;;;;;;4994943;28;20184;-67
2021/05/01 02:33:07;;;;;;;49.37;25.50;;;;;;;;;;4983971;28;20198;-67
2021/05/01 02:35:38;;;;;;;47.17;26.93;;;;;;;;;;4994435;28;20701;-67
2021/05/01 02:38:03;;;;;;;43.63;25.63;;;;;;;;;;4989635;28;20183;-67
2021/05/01 02:40:31;;;;;;;50.17;26.87;;;;;;;;;;5000614;28;20554;-67
2021/05/01 02:42:56;;;;;;;40.97;24.70;;;;;;;;;;4994102;28;20190;-67
2021/05/01 02:45:22;;;;;;;47.47;26.53;;;;;;;;;;4987466;28;20223;-67
2021/05/01 02:47:48;;;;;;;50.60;27.37;;;;;;;;;;4997427;28;20235;-68
2021/05/01 02:50:15;;;;;;;48.60;26.57;;;;;;;;;;4983119;28;20195;-67
2021/05/01 02:52:40;;;;;;;44.27;25.37;;;;;;;;;;4993539;28;20195;-68
2021/05/01 02:55:08;;;;;;;41.83;24.70;;;;;;;;;;4990269;28;20566;-68
2021/05/01 02:57:33;;;;;;;41.73;26.23;;;;;;;;;;4993935;28;20229;-68
2021/05/01 03:00:02;;;;;;;52.43;26.57;;;;;;;;;;4990364;28;20218;-68
2021/05/01 03:02:27;;;;;;;39.07;24.53;;;;;;;;;;4998886;28;20210;-67
2021/05/01 03:04:53;;;;;;;39.83;24.60;;;;;;;;;;4984088;28;20860;-67
2021/05/01 03:07:18;;;;;;;48.50;24.27;;;;;;;;;;4990872;28;20187;-68
2021/05/01 03:09:44;;;;;;;44.93;25.60;;;;;;;;;;4989152;28;20195;-68
2021/05/01 03:12:09;;;;;;;45.63;23.63;;;;;;;;;;4995958;28;20884;-68
2021/05/01 03:14:34;;;;;;;47.80;23.30;;;;;;;;;;4989317;28;20184;-68
2021/05/01 03:17:00;;;;;;;49.30;24.87;;;;;;;;;;4984170;28;20222;-68
2021/05/01 03:19:25;;;;;;;42.00;23.30;;;;;;;;;;4996034;28;20198;-68
2021/05/01 03:21:51;;;;;;;51.97;25.17;;;;;;;;;;4992415;28;20269;-68
2021/05/01 03:24:16;;;;;;;42.20;24.67;;;;;;;;;;4993025;28;20209;-68
2021/05/01 03:26:41;;;;;;;40.97;24.77;;;;;;;;;;4989491;28;20659;-68
2021/05/01 03:29:07;;;;;;;47.45;24.42;;;;;;;;;;4993632;28;20195;-68
2021/05/01 03:31:33;;;;;;;41.80;22.90;;;;;;;;;;4986059;28;20221;-68
2021/05/01 03:33:58;;;;;;;44.87;23.13;;;;;;;;;;4993647;28;20202;-68
2021/05/01 03:36:24;;;;;;;41.40;22.27;;;;;;;;;;4985632;28;20741;-67
2021/05/01 03:38:49;;;;;;;39.63;23.67;;;;;;;;;;4999062;28;20582;-69
2021/05/01 03:41:14;;;;;;;37.53;22.60;;;;;;;;;;4981793;28;20195;-67
2021/05/01 03:43:40;;;;;;;47.92;23.02;;;;;;;;;;4995725;28;20257;-67
2021/05/01 03:46:05;;;;;;;38.97;20.13;;;;;;;;;;4989123;28;20648;-67
2021/05/01 03:48:30;;;;;;;38.43;21.97;;;;;;;;;;4994448;28;20228;-67
2021/05/01 03:50:56;;;;;;;36.50;21.42;;;;;;;;;;4999751;28;20182;-67
2021/05/01 03:53:22;;;;;;;39.72;21.42;;;;;;;;;;4985684;28;21007;-67
2021/05/01 03:55:47;;;;;;;36.77;20.13;;;;;;;;;;4989319;28;21182;-68
2021/05/01 03:58:13;;;;;;;40.83;20.50;;;;;;;;;;4983839;28;20857;-68
2021/05/01 04:00:38;;;;;;;41.05;21.67;;;;;;;;;;4994719;28;20553;-68
2021/05/01 04:03:04;;;;;;;32.80;18.85;;;;;;;;;;4983877;28;20235;-68
2021/05/01 04:05:29;;;;;;;32.87;19.17;;;;;;;;;;4988007;28;20309;-68
2021/05/01 04:07:54;;;;;;;35.30;20.47;;;;;;;;;;4983984;28;20199;-67
2021/05/01 04:10:20;;;;;;;33.97;18.83;;;;;;;;;;4988902;28;20272;-67
2021/05/01 04:12:45;;;;;;;33.47;18.83;;;;;;;;;;4982539;28;20211;-67
2021/05/01 04:15:11;;;;;;;32.97;18.80;;;;;;;;;;4989488;28;20194;-68
2021/05/01 04:17:37;;;;;;;32.53;18.87;;;;;;;;;;4982286;28;20738;-68
2021/05/01 04:20:05;;;;;;;36.90;19.47;;;;;;;;;;4996780;28;20186;-68
2021/05/01 04:22:30;;;;;;;33.53;19.90;;;;;;;;;;4990452;28;20198;-68
2021/05/01 04:24:55;;;;;;;37.57;19.53;;;;;;;;;;4983294;28;20211;-68
2021/05/01 04:27:21;;;;;;;32.60;18.07;;;;;;;;;;4991481;28;20191;-68
2021/05/01 04:29:46;;;;;;;37.53;20.27;;;;;;;;;;4987220;28;20217;-68
2021/05/01 04:32:11;;;;;;;43.07;20.83;;;;;;;;;;4989118;28;20206;-67
2021/05/01 04:34:37;;;;;;;34.37;20.17;;;;;;;;;;4983953;28;20274;-67
2021/05/01 04:37:02;;;;;;;36.97;20.23;;;;;;;;;;4988870;28;20200;-67
2021/05/01 04:39:28;;;;;;;34.77;20.20;;;;;;;;;;4980811;28;20199;-68
2021/05/01 04:41:53;;;;;;;35.67;21.30;;;;;;;;;;4988925;28;20659;-67
2021/05/01 04:44:21;;;;;;;33.57;19.23;;;;;;;;;;4289131;28;10000737;-67
2021/05/01 04:46:50;;;;;;;39.87;20.80;;;;;;;;;;4985474;28;20191;-68
2021/05/01 04:49:16;;;;;;;36.57;21.07;;;;;;;;;;4978646;28;20237;-68
2021/05/01 04:51:41;;;;;;;51.57;22.47;;;;;;;;;;4990497;28;20226;-68
2021/05/01 04:54:07;;;;;;;39.13;24.77;;;;;;;;;;4989556;28;20187;-68
2021/05/01 04:56:33;;;;;;;36.27;22.93;;;;;;;;;;4978263;28;20205;-69
2021/05/01 04:58:58;;;;;;;37.30;21.93;;;;;;;;;;4997494;28;20593;-68
2021/05/01 05:01:23;;;;;;;36.03;21.97;;;;;;;;;;4978344;28;20277;-67
2021/05/01 05:03:49;;;;;;;40.30;24.27;;;;;;;;;;4984557;28;20816;-68
2021/05/01 05:06:14;;;;;;;44.97;25.50;;;;;;;;;;4974372;28;20563;-68
2021/05/01 05:08:39;;;;;;;39.30;24.43;;;;;;;;;;4989715;28;20191;-67
2021/05/01 05:11:05;;;;;;;48.47;25.47;;;;;;;;;;4979619;28;20245;-67
2021/05/01 05:13:30;;;;;;;44.63;25.63;;;;;;;;;;4996224;28;20201;-67
2021/05/01 05:15:55;;;;;;;49.33;27.13;;;;;;;;;;4990602;28;20253;-68
2021/05/01 05:18:21;;;;;;;43.00;26.50;;;;;;;;;;4992679;28;20206;-68
2021/05/01 05:20:46;;;;;;;48.00;26.40;;;;;;;;;;4987075;28;20537;-68
2021/05/01 05:23:12;;;;;;;42.40;26.60;;;;;;;;;;4990414;28;20502;-68
2021/05/01 05:25:38;;;;;;;50.57;27.93;;;;;;;;;;4993155;28;20713;-68
2021/05/01 05:28:04;;;;;;;42.17;27.17;;;;;;;;;;4985671;28;20190;-68
2021/05/01 05:30:29;;;;;;;42.53;25.77;;;;;;;;;;4992449;28;20666;-68
2021/05/01 05:32:55;;;;;;;48.87;28.33;;;;;;;;;;4987211;28;20201;-68
2021/05/01 05:35:21;;;;;;;47.17;27.13;;;;;;;;;;4990411;28;20192;-68
2021/05/01 05:37:46;;;;;;;53.80;28.50;;;;;;;;;;4984731;28;20607;-68
2021/05/01 05:40:12;;;;;;;51.07;27.83;;;;;;;;;;4990561;28;20191;-68
2021/05/01 05:42:38;;;;;;;41.50;25.37;;;;;;;;;;4983281;28;20227;-68
2021/05/01 05:45:05;;;;;;;45.50;26.70;;;;;;;;;;4991436;28;20215;-68
2021/05/01 05:47:31;;;;;;;47.00;27.90;;;;;;;;;;4986321;28;20245;-68
2021/05/01 05:49:56;;;;;;;45.43;28.63;;;;;;;;;;4995705;28;20419;-68
2021/05/01 05:52:21;;;;;;;45.13;26.63;;;;;;;;;;4982501;28;20199;-68
2021/05/01 05:54:47;;;;;;;36.23;22.47;;;;;;;;;;4998358;28;20754;-68
2021/05/01 05:57:12;;;;;;;36.83;25.05;;;;;;;;;;4993235;28;20231;-68
2021/05/01 05:59:38;;;;;;;49.40;26.30;;;;;;;;;;4985842;28;20706;-68
2021/05/01 06:02:05;;;;;;;41.50;25.45;;;;;;;;;;4994818;28;20582;-68
2021/05/01 06:04:35;;;;;;;39.63;24.25;;;;;;;;;;4982678;28;20297;-68
2021/05/01 06:07:09;;;;;;;42.33;24.77;;;;;;;;;;4991900;28;20196;-68
2021/05/01 06:09:37;;;;;;;41.10;24.83;;;;;;;;;;4986096;28;20281;-68
2021/05/01 06:12:03;;;;;;;38.22;22.88;;;;;;;;;;4993153;28;20231;-68
2021/05/01 06:14:29;;;;;;;39.85;24.17;;;;;;;;;;4984581;28;20190;-68
2021/05/01 06:16:56;;;;;;;37.67;22.75;;;;;;;;;;4993498;28;20203;-68
2021/05/01 06:19:22;;;;;;;35.55;23.15;;;;;;;;;;4981833;28;20199;-68
2021/05/01 06:21:48;;;;;;;34.58;23.15;;;;;;;;;;4990610;28;20202;-68
2021/05/01 06:24:14;;;;;;;40.13;22.50;;;;;;;;;;4979240;28;20211;-68
2021/05/01 06:26:39;;;;;;;31.45;19.73;;;;;;;;;;4990773;28;20253;-68
2021/05/01 06:29:06;;;;;;;42.17;21.73;;;;;;;;;;4987498;28;20188;-68
2021/05/01 06:31:35;;;;;;;36.85;20.95;;;;;;;;;;4983328;28;20585;-68
2021/05/01 06:34:01;;;;;;;32.03;19.73;;;;;;;;;;4993419;28;20274;-67
2021/05/01 06:36:27;;;;;;;32.85;20.20;;;;;;;;;;4979844;28;20193;-67
2021/05/01 06:38:57;;;;;;;33.67;18.65;;;;;;;;;;4990623;28;20187;-67
2021/05/01 06:41:24;;;;;;;26.63;16.43;;;;;;;;;;4982005;28;20568;-67
2021/05/01 06:44:11;;;;;;;26.70;17.40;;;;;;;;;;4990484;28;20403;-67
2021/05/01 06:46:40;;;;;;;25.85;17.58;;;;;;;;;;4980629;28;20278;-67
2021/05/01 06:49:11;;;;;;;27.35;16.17;;;;;;;;;;4992365;28;20250;-67
2021/05/01 06:51:38;;;;;;;24.10;16.58;;;;;;;;;;4982835;28;20195;-68
2021/05/01 06:54:09;;;;;;;25.67;16.23;;;;;;;;;;4993251;28;20646;-67
2021/05/01 06:56:38;;;;;;;33.72;18.23;;;;;;;;;;4981594;28;20209;-68
2021/05/01 06:59:06;;;;;;;27.92;16.27;;;;;;;;;;4994303;28;20282;-68
2021/05/01 07:01:32;;;;;;;24.90;15.43;;;;;;;;;;4980557;28;20258;-68
2021/05/01 07:03:58;;;;;;;25.95;15.65;;;;;;;;;;4993233;28;20199;-68
2021/05/01 07:06:24;;;;;;;23.17;15.05;;;;;;;;;;4983618;28;20660;-68
2021/05/01 07:08:49;;;;;;;21.80;14.30;;;;;;;;;;4992301;28;20179;-68
2021/05/01 07:11:15;;;;;;;23.98;14.32;;;;;;;;;;4985796;28;20230;-68
2021/05/01 07:13:41;;;;;;;28.10;15.23;;;;;;;;;;4991404;28;20551;-68
2021/05/01 07:16:09;;;;;;;20.65;14.75;;;;;;;;;;4993071;28;20659;-68
2021/05/01 07:18:37;;;;;;;23.73;14.95;;;;;;;;;;4987899;28;20192;-68
2021/05/01 07:21:03;;;;;;;22.90;13.85;;;;;;;;;;4990547;28;20194;-68
2021/05/01 07:23:28;;;;;;;20.42;14.85;;;;;;;;;;4986504;28;20187;-67
2021/05/01 07:25:54;;;;;;;18.65;13.38;;;;;;;;;;4990000;28;20694;-68
2021/05/01 07:28:23;;;;;;;21.98;13.00;;;;;;;;;;4984660;28;20191;-68
2021/05/01 07:30:53;;;;;;;19.23;11.98;;;;;;;;;;4990090;28;20314;-68
2021/05/01 07:33:31;;;;;;;22.15;12.43;;;;;;;;;;4983212;28;20187;-67
2021/05/01 07:36:09;;;;;;;17.15;10.68;;;;;;;;;;4985169;28;20266;-67
2021/05/01 07:38:35;;;;;;;16.20;11.20;;;;;;;;;;4984743;28;20197;-67
2021/05/01 07:41:03;;;;;;;18.63;10.63;;;;;;;;;;4991560;28;20188;-67
2021/05/01 07:43:30;;;;;;;16.52;10.90;;;;;;;;;;4986974;28;20187;-68
2021/05/01 07:46:06;;;;;;;18.23;11.52;;;;;;;;;;4995708;28;20721;-68
2021/05/01 07:48:33;;;;;;;17.30;10.25;;;;;;;;;;4979050;28;20238;-67
2021/05/01 07:50:58;;;;;;;15.43;8.75;;;;;;;;;;4988291;28;20198;-67
2021/05/01 07:53:25;;;;;;;17.50;9.63;;;;;;;;;;4985482;28;20190;-67
2021/05/01 07:55:50;;;;;;;16.90;10.52;;;;;;;;;;4989126;28;20635;-68
2021/05/01 07:58:15;;;;;;;12.02;9.23;;;;;;;;;;4989208;28;20195;-67
2021/05/01 08:00:43;;;;;;;17.35;9.80;;;;;;;;;;4982305;28;20674;-67
2021/05/01 08:03:08;;;;;;;18.00;11.40;;;;;;;;;;4993419;28;20214;-67
2021/05/01 08:05:34;;;;;;;16.40;10.55;;;;;;;;;;4987917;28;20210;-68
2021/05/01 08:07:59;;;;;;;20.83;9.98;;;;;;;;;;4992311;28;20191;-67
2021/05/01 08:10:25;;;;;;;12.98;8.73;;;;;;;;;;4984827;28;20685;-67
2021/05/01 08:12:51;;;;;;;13.20;9.18;;;;;;;;;;4992586;28;20233;-68
2021/05/01 08:15:17;;;;;;;18.23;9.77;;;;;;;;;;4986333;28;20278;-68
2021/05/01 08:17:42;;;;;;;11.98;8.65;;;;;;;;;;4993345;28;20183;-68
2021/05/01 08:20:09;;;;;;;11.48;7.88;;;;;;;;;;4981192;28;20179;-68
2021/05/01 08:22:36;;;;;;;11.70;7.70;;;;;;;;;;4993848;28;20191;-67
2021/05/01 08:25:04;;;;;;;15.57;8.40;;;;;;;;;;4983067;28;20308;-69
2021/05/01 08:27:29;;;;;;;10.10;7.55;;;;;;;;;;4988696;28;20241;-67
2021/05/01 08:29:55;;;;;;;10.85;6.25;;;;;;;;;;4995752;28;20710;-68
2021/05/01 08:32:20;;;;;;;10.57;6.00;;;;;;;;;;4987184;28;20274;-68
2021/05/01 08:34:46;;;;;;;9.23;6.32;;;;;;;;;;4988149;28;20186;-67
2021/05/01 08:37:12;;;;;;;13.40;7.47;;;;;;;;;;4983268;28;20194;-69
2021/05/01 08:39:38;;;;;;;12.32;6.63;;;;;;;;;;4995600;28;20190;-67
2021/05/01 08:42:04;;;;;;;11.45;6.93;;;;;;;;;;4984706;28;20281;-67
2021/05/01 08:44:29;;;;;;;8.60;6.85;;;;;;;;;;4990479;28;20309;-69
2021/05/01 08:46:55;;;;;;;14.60;7.40;;;;;;;;;;4984288;28;20393;-69
2021/05/01 08:49:20;;;;;;;13.65;8.07;;;;;;;;;;4987108;28;20314;-69
2021/05/01 08:51:46;;;;;;;13.15;7.18;;;;;;;;;;4984365;28;20201;-68
2021/05/01 08:54:12;;;;;;;11.20;6.80;;;;;;;;;;4989061;28;20266;-69
2021/05/01 08:56:38;;;;;;;9.80;6.97;;;;;;;;;;4979457;28;20191;-69
2021/05/01 08:59:04;;;;;;;11.82;7.30;;;;;;;;;;4990642;28;20272;-69
2021/05/01 09:01:30;;;;;;;9.50;7.20;;;;;;;;;;4989955;28;20187;-69
2021/05/01 09:03:55;;;;;;;9.98;6.50;;;;;;;;;;4980003;28;20230;-69
2021/05/01 09:06:23;;;;;;;10.45;6.30;;;;;;;;;;4989962;28;20226;-69
2021/05/01 09:08:56;;;;;;;13.93;6.90;;;;;;;;;;4979783;28;20195;-69
2021/05/01 09:11:42;;;;;;;10.02;6.40;;;;;;;;;;4993816;28;20195;-69
2021/05/01 09:14:21;;;;;;;8.38;6.03;;;;;;;;;;4977650;28;20265;-68
2021/05/01 09:17:01;;;;;;;12.25;6.53;;;;;;;;;;4994991;28;20217;-69
2021/05/01 09:19:35;;;;;;;12.15;5.90;;;;;;;;;;4979646;28;20199;-68
2021/05/01 09:22:03;;;;;;;11.10;6.60;;;;;;;;;;4988974;28;20191;-69
2021/05/01 09:24:28;;;;;;;7.80;6.57;;;;;;;;;;4982002;28;20237;-67
2021/05/01 09:26:54;;;;;;;10.00;6.68;;;;;;;;;;4994532;28;20182;-67
2021/05/01 09:29:34;;;;;;;9.88;6.43;;;;;;;;;;4982970;28;20503;-68
2021/05/01 09:32:01;;;;;;;11.82;6.75;;;;;;;;;;4998148;28;20194;-69
2021/05/01 09:34:47;;;;;;;14.25;7.10;;;;;;;;;;4975646;28;20234;-69
2021/05/01 09:37:13;;;;;;;8.50;6.57;;;;;;;;;;4987734;28;20290;-69
2021/05/01 09:39:56;;;;;;;9.45;6.63;;;;;;;;;;4982139;28;20238;-69
2021/05/01 09:42:23;;;;;;;10.35;6.30;;;;;;;;;;4993046;28;20202;-68
2021/05/01 09:45:05;;;;;;;10.05;5.90;;;;;;;;;;4984805;28;20298;-68
2021/05/01 09:47:31;;;;;;;10.35;5.95;;;;;;;;;;4994216;28;20200;-67
2021/05/01 09:49:56;;;;;;;11.50;6.22;;;;;;;;;;4983077;28;20195;-68
2021/05/01 09:52:22;;;;;;;8.68;6.22;;;;;;;;;;4994544;28;20190;-68
2021/05/01 09:54:47;;;;;;;15.98;6.20;;;;;;;;;;4981006;28;20270;-68
2021/05/01 09:57:15;;;;;;;9.18;4.90;;;;;;;;;;4991843;28;20514;-68
2021/05/01 09:59:45;;;;;;;6.40;4.45;;;;;;;;;;4985608;28;20214;-68
2021/05/01 10:02:17;;;;;;;6.05;4.20;;;;;;;;;;4995501;28;20704;-68
2021/05/01 10:05:13;;;;;;;6.45;3.65;;;;;;;;;;4993763;28;20237;-68
2021/05/01 10:07:47;;;;;;;4.70;3.80;;;;;;;;;;4999443;28;20709;-68
2021/05/01 10:10:14;;;;;;;6.80;4.18;;;;;;;;;;4986129;28;20195;-69
2021/05/01 10:12:41;;;;;;;6.53;4.80;;;;;;;;;;4998566;28;20200;-68
2021/05/01 10:15:16;;;;;;;8.13;5.32;;;;;;;;;;4993178;28;20225;-69
2021/05/01 10:17:44;;;;;;;8.15;5.65;;;;;;;;;;4991697;28;20239;-69
2021/05/01 10:20:12;;;;;;;8.52;5.40;;;;;;;;;;4992496;28;20686;-69
2021/05/01 10:22:43;;;;;;;8.60;5.55;;;;;;;;;;4986249;28;20196;-69
2021/05/01 10:25:17;;;;;;;7.80;5.38;;;;;;;;;;4990594;28;20266;-69
2021/05/01 10:27:56;;;;;;;9.23;5.28;;;;;;;;;;4987873;28;20673;-69
2021/05/01 10:35:51;;;;;;;8.00;4.53;;;;;;;;;;4993529;28;20266;-68
2021/05/01 10:38:18;;;;;;;9.13;4.45;;;;;;;;;;4980564;28;20206;-68
2021/05/01 10:40:50;;;;;;;7.25;4.80;;;;;;;;;;4994133;28;20330;-68
2021/05/01 10:43:20;;;;;;;9.02;5.15;;;;;;;;;;4983340;28;20223;-68
2021/05/01 10:45:48;;;;;;;9.15;5.15;;;;;;;;;;4991373;28;20215;-68
2021/05/01 10:48:13;;;;;;;7.88;5.38;;;;;;;;;;4983111;28;20231;-69
2021/05/01 10:50:39;;;;;;;10.05;5.60;;;;;;;;;;4996096;28;20186;-68
2021/05/01 10:53:16;;;;;;;9.10;4.97;;;;;;;;;;4985123;28;20192;-68
2021/05/01 10:55:50;;;;;;;8.60;5.50;;;;;;;;;;4990648;28;20612;-68
2021/05/01 10:58:45;;;;;;;8.45;5.22;;;;;;;;;;4991473;28;20178;-69
2021/05/01 11:01:33;;;;;;;9.75;5.70;;;;;;;;;;4995925;28;20183;-68
2021/05/01 11:04:02;;;;;;;8.60;5.60;;;;;;;;;;4975635;28;20187;-70
2021/05/01 11:06:36;;;;;;;9.82;5.25;;;;;;;;;;4996271;28;20638;-68
2021/05/01 11:09:05;;;;;;;7.95;4.82;;;;;;;;;;4984500;28;20195;-68
2021/05/01 11:11:38;;;;;;;7.75;4.88;;;;;;;;;;4993336;28;20555;-69
2021/05/01 11:14:13;;;;;;;7.50;4.70;;;;;;;;;;4989184;28;20190;-69
2021/05/01 11:16:51;;;;;;;6.13;4.97;;;;;;;;;;4994726;28;20214;-69
2021/05/01 11:19:20;;;;;;;6.47;5.22;;;;;;;;;;4987459;28;20195;-69
2021/05/01 11:21:46;;;;;;;9.30;5.47;;;;;;;;;;4989183;28;20735;-69
2021/05/01 11:24:13;;;;;;;7.97;4.78;;;;;;;;;;4976015;28;20997;-69
2021/05/01 11:26:42;;;;;;;9.50;4.40;;;;;;;;;;4988572;28;20194;-68
2021/05/01 11:29:09;;;;;;;15.35;5.72;;;;;;;;;;4989873;28;20191;-68
2021/05/01 11:31:35;;;;;;;5.90;4.63;;;;;;;;;;4988734;28;20444;-68
2021/05/01 11:34:05;;;;;;;10.75;4.70;;;;;;;;;;4991338;28;20198;-69
2021/05/01 11:36:31;;;;;;;8.52;4.95;;;;;;;;;;4980863;28;20228;-68
2021/05/01 11:38:58;;;;;;;9.95;4.68;;;;;;;;;;4996637;28;20195;-68
2021/05/01 11:41:24;;;;;;;9.65;4.63;;;;;;;;;;4983100;28;20305;-68
2021/05/01 11:43:50;;;;;;;6.95;4.53;;;;;;;;;;4988112;28;20547;-69
2021/05/01 11:46:23;;;;;;;11.68;4.53;;;;;;;;;;4977891;28;22282;-69
2021/05/01 11:48:54;;;;;;;9.70;4.75;;;;;;;;;;4991916;28;20230;-69
2021/05/01 11:51:31;;;;;;;7.25;4.30;;;;;;;;;;4978048;28;20243;-68
2021/05/01 11:54:09;;;;;;;8.40;4.45;;;;;;;;;;4986362;28;20292;-68
2021/05/01 11:56:55;;;;;;;6.57;3.75;;;;;;;;;;4979872;28;20195;-68
2021/05/01 11:59:21;;;;;;;4.15;3.75;;;;;;;;;;4991365;28;20206;-69
2021/05/01 12:02:00;;;;;;;8.15;4.05;;;;;;;;;;4980578;28;20203;-68
2021/05/01 12:04:52;;;;;;;7.57;3.72;;;;;;;;;;4993869;28;20264;-68
2021/05/01 12:07:45;;;;;;;8.10;4.20;;;;;;;;;;4981348;28;20187;-68
2021/05/01 12:10:17;;;;;;;5.03;3.67;;;;;;;;;;4996545;28;20225;-69
2021/05/01 12:12:51;;;;;;;8.30;4.22;;;;;;;;;;4981292;28;20202;-68
2021/05/01 12:15:17;;;;;;;13.75;4.40;;;;;;;;;;4996896;28;20187;-69
2021/05/01 12:17:54;;;;;;;8.00;4.60;;;;;;;;;;4980834;28;20195;-69
2021/05/01 12:20:23;;;;;;;6.28;4.30;;;;;;;;;;4996010;28;20220;-69
2021/05/01 12:22:48;;;;;;;5.78;4.30;;;;;;;;;;4984789;28;20190;-69
2021/05/01 12:25:34;;;;;;;7.70;4.63;;;;;;;;;;4987960;28;20523;-69
2021/05/01 12:28:00;;;;;;;8.38;4.35;;;;;;;;;;4982631;28;20248;-69
2021/05/01 12:30:41;;;;;;;11.30;4.88;;;;;;;;;;4986796;28;20192;-69
2021/05/01 12:33:29;;;;;;;7.25;4.75;;;;;;;;;;4983449;28;20198;-69
2021/05/01 12:36:05;;;;;;;10.27;5.25;;;;;;;;;;4989316;28;20191;-69
2021/05/01 12:38:37;;;;;;;8.95;5.00;;;;;;;;;;4984621;28;20190;-69
2021/05/01 12:41:08;;;;;;;9.13;5.45;;;;;;;;;;4988436;28;20270;-69
2021/05/01 12:43:34;;;;;;;9.30;5.75;;;;;;;;;;4982313;28;20214;-69
2021/05/01 12:46:37;;;;;;;8.30;5.32;;;;;;;;;;4992114;28;20233;-68
2021/05/01 12:49:04;;;;;;;7.47;4.95;;;;;;;;;;4981174;28;20662;-69
2021/05/01 12:51:34;;;;;;;5.93;4.07;;;;;;;;;;4989520;28;20190;-69
2021/05/01 12:54:20;;;;;;;7.35;4.40;;;;;;;;;;4986451;28;20187;-68
2021/05/01 12:56:52;;;;;;;7.13;4.65;;;;;;;;;;4289684;28;10000852;-69
2021/05/01 12:59:20;;;;;;;9.70;4.30;;;;;;;;;;4977088;28;20203;-68
2021/05/01 13:02:18;;;;;;;6.70;4.35;;;;;;;;;;4982192;28;20566;-68
2021/05/01 13:05:05;;;;;;;8.10;4.60;;;;;;;;;;4974615;28;20678;-68
2021/05/01 13:07:30;;;;;;;8.75;4.90;;;;;;;;;;4985537;28;20317;-68
2021/05/01 13:09:57;;;;;;;8.05;4.22;;;;;;;;;;4982868;28;20664;-67
2021/05/01 13:12:24;;;;;;;5.78;4.32;;;;;;;;;;4983347;28;20189;-68
2021/05/01 13:14:49;;;;;;;7.38;4.50;;;;;;;;;;4974723;28;20191;-69
2021/05/01 13:17:24;;;;;;;8.80;4.45;;;;;;;;;;4985479;28;20195;-68
2021/05/01 13:20:03;;;;;;;5.32;3.50;;;;;;;;;;4988715;28;20190;-69
2021/05/01 13:22:32;;;;;;;6.22;3.42;;;;;;;;;;4983087;28;20198;-68
2021/05/01 13:25:07;;;;;;;9.65;3.50;;;;;;;;;;4984726;28;20660;-69
2021/05/01 13:27:37;;;;;;;4.60;3.08;;;;;;;;;;4978062;28;20189;-68
2021/05/01 13:30:06;;;;;;;6.80;3.75;;;;;;;;;;4990018;28;20190;-69
2021/05/01 13:32:32;;;;;;;8.48;4.00;;;;;;;;;;4986231;28;20246;-69
2021/05/01 13:35:02;;;;;;;9.38;4.55;;;;;;;;;;4991341;28;20766;-69
2021/05/01 13:37:30;;;;;;;8.50;4.03;;;;;;;;;;4983887;28;20325;-69
2021/05/01 13:39:56;;;;;;;6.72;3.83;;;;;;;;;;4990050;28;20325;-68
2021/05/01 13:42:23;;;;;;;6.70;3.75;;;;;;;;;;4982013;28;20605;-68
2021/05/01 13:44:51;;;;;;;5.60;3.67;;;;;;;;;;4995398;28;20218;-69
2021/05/01 13:47:31;;;;;;;5.38;3.63;;;;;;;;;;4980478;28;20191;-69
2021/05/01 13:49:59;;;;;;;6.25;3.70;;;;;;;;;;4995694;28;20630;-69
2021/05/01 13:52:28;;;;;;;5.45;3.60;;;;;;;;;;4984691;28;20230;-69
2021/05/01 13:55:12;;;;;;;5.47;3.10;;;;;;;;;;4992281;28;20546;-69
2021/05/01 13:57:38;;;;;;;6.97;3.28;;;;;;;;;;4983043;28;20179;-68
2021/05/01 14:00:04;;;;;;;7.63;3.53;;;;;;;;;;4992902;28;20571;-69
2021/05/01 14:02:41;;;;;;;5.07;3.53;;;;;;;;;;4985154;28;20256;-68
2021/05/01 14:05:08;;;;;;;4.75;3.40;;;;;;;;;;4998618;28;20207;-68
2021/05/01 14:07:34;;;;;;;7.88;3.03;;;;;;;;;;4984350;28;23575;-68
2021/05/01 14:10:00;;;;;;;8.07;3.40;;;;;;;;;;4993266;28;20228;-68
2021/05/01 14:12:30;;;;;;;5.28;3.38;;;;;;;;;;5000038;28;20677;-69
2021/05/01 14:14:55;;;;;;;5.13;3.78;;;;;;;;;;4988429;28;20238;-68
2021/05/01 14:17:25;;;;;;;5.10;3.88;;;;;;;;;;4992190;28;20191;-67
2021/05/01 14:19:58;;;;;;;5.43;4.43;;;;;;;;;;4987624;28;20195;-68
2021/05/01 14:22:24;;;;;;;8.15;3.92;;;;;;;;;;4994149;28;20274;-69
2021/05/01 14:24:50;;;;;;;8.32;3.92;;;;;;;;;;4980937;28;20515;-69
2021/05/01 14:27:16;;;;;;;7.78;3.95;;;;;;;;;;4994223;28;20542;-68
2021/05/01 14:29:58;;;;;;;6.32;4.25;;;;;;;;;;4984683;28;20207;-68
2021/05/01 14:32:25;;;;;;;6.45;4.13;;;;;;;;;;4993315;28;20218;-68
2021/05/01 14:34:59;;;;;;;6.68;4.25;;;;;;;;;;4985975;28;20217;-68
2021/05/01 14:37:26;;;;;;;6.97;4.35;;;;;;;;;;4987711;28;20200;-68
2021/05/01 14:39:52;;;;;;;9.50;4.22;;;;;;;;;;4985082;28;20187;-69
2021/05/01 14:42:19;;;;;;;6.55;3.97;;;;;;;;;;4991184;28;20274;-69